createdAt,value
2018-07-06T00:01:29.655Z,12.00
2018-07-06T00:04:09.075Z,11.77
2018-07-06T00:06:48.343Z,12.33
2018-07-06T00:09:27.757Z,12.20
2018-07-06T00:12:07.100Z,11.50
2018-07-06T00:14:46.490Z,12.60
2018-07-06T00:17:26.093Z,12.13
2018-07-06T00:20:05.643Z,12.27
2018-07-06T00:22:45.071Z,12.70
2018-07-06T00:25:24.480Z,12.67
2018-07-06T00:28:03.888Z,12.73
2018-07-06T00:30:43.241Z,11.87
2018-07-06T00:33:22.696Z,12.50
2018-07-06T00:36:02.074Z,11.97
2018-07-06T00:38:41.465Z,12.63
2018-07-06T00:41:20.835Z,12.53
2018-07-06T00:44:00.215Z,12.17
2018-07-06T00:46:39.802Z,13.33
2018-07-06T00:49:19.418Z,12.77
2018-07-06T00:51:58.930Z,12.70
2018-07-06T00:54:38.490Z,14.13
2018-07-06T00:57:17.971Z,13.80
2018-07-06T00:59:57.448Z,13.80
2018-07-06T01:02:36.858Z,13.90
2018-07-06T01:05:16.307Z,13.53
2018-07-06T01:07:55.823Z,12.80
2018-07-06T01:10:35.335Z,13.93
2018-07-06T01:13:14.628Z,14.23
2018-07-06T01:15:53.974Z,12.90
2018-07-06T01:18:33.389Z,13.97
2018-07-06T01:21:12.814Z,13.70
2018-07-06T01:23:52.241Z,13.90
2018-07-06T01:26:31.566Z,14.83
2018-07-06T01:29:11.138Z,15.20
2018-07-06T01:31:50.525Z,14.53
2018-07-06T01:34:30.013Z,14.70
2018-07-06T01:37:09.438Z,15.30
2018-07-06T01:39:48.830Z,15.93
2018-07-06T01:42:28.350Z,15.20
2018-07-06T01:45:07.726Z,15.20
2018-07-06T01:47:47.126Z,14.70
2018-07-06T01:50:26.650Z,14.70
2018-07-06T01:53:06.017Z,14.97
2018-07-06T01:55:45.465Z,15.73
2018-07-06T01:58:24.974Z,16.37
2018-07-06T02:01:04.374Z,16.00
2018-07-06T02:03:43.750Z,15.07
2018-07-06T02:06:23.206Z,15.80
2018-07-06T02:09:02.698Z,16.30
2018-07-06T02:11:42.186Z,15.33
2018-07-06T02:14:21.628Z,16.47
2018-07-06T02:17:01.146Z,15.77
2018-07-06T02:19:40.634Z,15.37
2018-07-06T02:22:20.091Z,17.10
2018-07-06T02:24:59.442Z,17.00
2018-07-06T02:27:38.842Z,14.87
2018-07-06T02:30:18.275Z,15.10
2018-07-06T02:32:57.671Z,16.17
2018-07-06T02:35:37.227Z,16.13
2018-07-06T02:38:16.734Z,16.40
2018-07-06T02:40:56.401Z,16.80
2018-07-06T02:43:35.965Z,16.37
2018-07-06T02:46:15.427Z,16.80
2018-07-06T02:48:54.819Z,16.23
2018-07-06T02:51:34.418Z,16.10
2018-07-06T02:54:13.879Z,16.20
2018-07-06T02:56:53.216Z,17.20
2018-07-06T02:59:32.608Z,17.87
2018-07-06T03:02:12.019Z,16.73
2018-07-06T03:04:51.402Z,16.10
2018-07-06T03:07:30.970Z,16.93
2018-07-06T03:10:10.502Z,17.00
2018-07-06T03:12:49.894Z,16.67
2018-07-06T03:15:29.278Z,17.10
2018-07-06T03:18:08.652Z,17.50
2018-07-06T03:20:48.039Z,17.40
2018-07-06T03:23:27.382Z,16.17
2018-07-06T03:26:06.946Z,15.90
2018-07-06T03:28:46.544Z,17.70
2018-07-06T03:31:25.748Z,16.13
2018-07-06T03:34:05.262Z,15.97
2018-07-06T03:36:44.719Z,15.07
2018-07-06T03:39:24.068Z,16.70
2018-07-06T03:42:03.498Z,17.23
2018-07-06T03:44:43.002Z,17.00
2018-07-06T03:47:22.546Z,16.20
2018-07-06T03:50:01.939Z,16.37
2018-07-06T03:52:41.291Z,15.80
2018-07-06T03:55:22.403Z,16.27
2018-07-06T03:58:03.573Z,16.47
2018-07-06T04:00:42.954Z,15.80
2018-07-06T04:03:22.455Z,14.37
2018-07-06T04:06:02.103Z,14.63
2018-07-06T04:08:41.474Z,17.03
2018-07-06T04:11:20.971Z,17.57
2018-07-06T04:14:00.414Z,16.07
2018-07-06T04:16:39.794Z,16.80
2018-07-06T04:19:19.350Z,16.60
2018-07-06T04:21:58.726Z,17.53
2018-07-06T04:24:38.107Z,16.83
2018-07-06T04:27:17.557Z,16.67
2018-07-06T04:29:57.018Z,16.33
2018-07-06T04:32:36.418Z,16.43
2018-07-06T04:35:15.854Z,16.33
2018-07-06T04:37:55.281Z,17.50
2018-07-06T04:40:34.638Z,17.20
2018-07-06T04:43:14.038Z,17.37
2018-07-06T04:45:53.470Z,16.90
2018-07-06T04:48:32.946Z,18.50
2018-07-06T04:51:12.305Z,17.03
2018-07-06T04:53:51.798Z,17.43
2018-07-06T04:56:31.192Z,17.40
2018-07-06T04:59:10.609Z,17.47
2018-07-06T05:01:50.108Z,18.33
2018-07-06T05:04:29.483Z,17.37
2018-07-06T05:07:09.046Z,17.53
2018-07-06T05:09:48.527Z,18.00
2018-07-06T05:12:28.006Z,17.40
2018-07-06T05:15:07.448Z,17.00
2018-07-06T05:17:46.934Z,17.07
2018-07-06T05:20:27.014Z,16.67
2018-07-06T05:23:06.436Z,15.97
2018-07-06T05:25:45.742Z,16.87
2018-07-06T05:28:25.165Z,16.47
2018-07-06T05:31:04.691Z,15.57
2018-07-06T05:33:44.219Z,16.30
2018-07-06T05:36:23.582Z,15.53
2018-07-06T05:39:03.088Z,15.83
2018-07-06T05:41:42.519Z,16.50
2018-07-06T05:44:21.946Z,16.80
2018-07-06T05:47:01.407Z,16.70
2018-07-06T05:49:40.783Z,16.80
2018-07-06T05:52:20.286Z,17.57
2018-07-06T05:54:59.702Z,18.37
2018-07-06T05:57:39.080Z,18.90
2018-07-06T06:00:18.679Z,18.40
2018-07-06T06:02:58.142Z,21.63
2018-07-06T06:05:37.522Z,19.40
2018-07-06T06:08:04.646Z,22.33
2018-07-06T06:10:32.834Z,21.20
2018-07-06T06:13:01.009Z,23.60
2018-07-06T06:15:29.190Z,23.27
2018-07-06T06:17:57.369Z,23.90
2018-07-06T06:20:25.534Z,24.93
2018-07-06T06:22:53.706Z,23.50
2018-07-06T06:25:21.882Z,24.73
2018-07-06T06:27:50.052Z,29.93
2018-07-06T06:30:18.234Z,29.07
2018-07-06T06:32:46.410Z,29.37
2018-07-06T06:35:14.587Z,30.87
2018-07-06T06:37:42.937Z,31.17
2018-07-06T06:40:11.131Z,32.43
2018-07-06T06:42:39.331Z,35.97
2018-07-06T06:45:07.511Z,34.63
2018-07-06T06:47:35.717Z,34.90
2018-07-06T06:50:03.934Z,37.13
2018-07-06T06:52:32.125Z,38.53
2018-07-06T06:55:01.163Z,36.37
2018-07-06T06:57:29.362Z,35.10
2018-07-06T06:59:57.554Z,36.93
2018-07-06T07:02:25.738Z,32.97
2018-07-06T07:04:53.928Z,38.63
2018-07-06T07:07:22.157Z,35.77
2018-07-06T07:09:50.311Z,39.07
2018-07-06T07:12:18.494Z,38.30
2018-07-06T07:14:46.860Z,41.40
2018-07-06T07:17:15.038Z,43.43
2018-07-06T07:19:43.238Z,39.73
2018-07-06T07:22:11.459Z,45.37
2018-07-06T07:24:39.750Z,45.00
2018-07-06T07:27:07.916Z,41.87
2018-07-06T07:29:36.088Z,35.63
2018-07-06T07:32:04.278Z,34.23
2018-07-06T07:34:32.466Z,34.20
2018-07-06T07:37:00.634Z,30.60
2018-07-06T07:39:28.838Z,27.90
2018-07-06T07:41:57.030Z,28.60
2018-07-06T07:44:25.210Z,29.00
2018-07-06T07:46:53.391Z,32.97
2018-07-06T07:49:21.564Z,40.07
2018-07-06T07:52:06.238Z,42.53
2018-07-06T07:54:49.275Z,36.40
2018-07-06T07:57:17.451Z,37.17
2018-07-06T07:59:45.634Z,30.47
2018-07-06T08:02:13.815Z,27.27
2018-07-06T08:04:42.162Z,27.40
2018-07-06T08:07:10.321Z,25.07
2018-07-06T08:09:38.502Z,26.90
2018-07-06T08:12:06.706Z,31.50
2018-07-06T08:14:34.942Z,29.70
2018-07-06T08:17:03.038Z,33.47
2018-07-06T08:19:31.207Z,36.10
2018-07-06T08:21:59.367Z,38.83
2018-07-06T08:24:27.513Z,37.73
2018-07-06T08:26:55.670Z,36.43
2018-07-06T08:29:23.846Z,39.87
2018-07-06T08:31:52.018Z,36.80
2018-07-06T08:34:31.558Z,38.00
2018-07-06T08:37:52.244Z,38.57
2018-07-06T08:40:21.310Z,41.03
2018-07-06T08:42:50.728Z,41.87
2018-07-06T08:45:18.890Z,42.20
2018-07-06T08:47:47.587Z,45.07
2018-07-06T08:50:15.779Z,46.23
2018-07-06T08:52:45.058Z,48.57
2018-07-06T08:55:13.216Z,49.30
2018-07-06T08:57:42.430Z,49.63
2018-07-06T09:00:11.436Z,56.03
2018-07-06T09:02:39.610Z,50.30
2018-07-06T09:05:08.314Z,48.83
2018-07-06T09:07:36.552Z,51.33
2018-07-06T09:10:04.834Z,47.93
2018-07-06T09:12:32.994Z,51.90
2018-07-06T09:15:01.803Z,46.37
2018-07-06T09:17:29.979Z,44.30
2018-07-06T09:19:59.286Z,45.23
2018-07-06T09:22:27.350Z,47.17
2018-07-06T09:24:56.853Z,46.10
2018-07-06T09:27:25.006Z,47.27
2018-07-06T09:29:53.465Z,45.20
2018-07-06T09:32:21.412Z,46.60
2018-07-06T09:34:49.602Z,48.77
2018-07-06T09:37:17.798Z,45.70
2018-07-06T09:39:46.716Z,46.03
2018-07-06T09:42:15.400Z,48.40
2018-07-06T09:44:43.598Z,45.97
2018-07-06T09:47:11.795Z,47.77
2018-07-06T09:49:39.964Z,44.43
2018-07-06T09:52:08.151Z,45.77
2018-07-06T09:54:36.368Z,46.70
2018-07-06T09:57:04.564Z,44.60
2018-07-06T09:59:32.746Z,42.10
2018-07-06T10:02:00.921Z,44.43
2018-07-06T10:04:29.113Z,44.67
2018-07-06T10:06:57.279Z,42.93
2018-07-06T10:09:25.514Z,41.73
2018-07-06T10:11:53.799Z,41.47
2018-07-06T10:14:21.997Z,42.23
2018-07-06T10:16:50.193Z,39.30
2018-07-06T10:19:18.401Z,40.17
2018-07-06T10:21:46.602Z,38.13
2018-07-06T10:24:14.749Z,41.17
2018-07-06T10:26:42.938Z,39.40
2018-07-06T10:29:29.454Z,36.07
2018-07-06T10:32:07.230Z,39.13
2018-07-06T10:34:35.394Z,40.13
2018-07-06T10:37:03.571Z,39.33
2018-07-06T10:39:31.826Z,40.77
2018-07-06T10:41:59.934Z,42.63
2018-07-06T10:44:28.103Z,40.63
2018-07-06T10:46:56.278Z,40.23
2018-07-06T10:49:24.450Z,41.47
2018-07-06T10:51:52.755Z,41.20
2018-07-06T10:54:20.931Z,37.47
2018-07-06T10:56:49.094Z,38.33
2018-07-06T10:59:17.270Z,38.20
2018-07-06T11:01:45.448Z,36.00
2018-07-06T11:04:13.614Z,38.97
2018-07-06T11:06:41.807Z,36.93
2018-07-06T11:09:09.983Z,37.87
2018-07-06T11:11:38.242Z,39.53
2018-07-06T11:14:06.768Z,40.90
2018-07-06T11:16:34.911Z,42.47
2018-07-06T11:19:03.114Z,38.57
2018-07-06T11:21:31.262Z,41.23
2018-07-06T11:23:59.438Z,42.00
2018-07-06T11:26:27.629Z,39.20
2018-07-06T11:28:55.805Z,42.73
2018-07-06T11:31:23.994Z,37.90
2018-07-06T11:33:52.187Z,36.70
2018-07-06T11:36:20.358Z,35.20
2018-07-06T11:38:48.518Z,36.43
2018-07-06T11:41:16.678Z,36.60
2018-07-06T11:43:44.855Z,33.10
2018-07-06T11:46:13.022Z,31.50
2018-07-06T11:48:41.218Z,32.63
2018-07-06T11:51:09.950Z,32.93
2018-07-06T11:53:38.147Z,31.53
2018-07-06T11:56:06.414Z,30.83
2018-07-06T11:58:34.468Z,30.80
2018-07-06T12:01:02.627Z,31.93
2018-07-06T12:03:30.815Z,29.67
2018-07-06T12:05:58.975Z,29.53
2018-07-06T12:08:27.138Z,28.20
2018-07-06T12:10:55.321Z,26.57
2018-07-06T12:13:23.474Z,26.27
2018-07-06T12:15:52.202Z,26.63
2018-07-06T12:18:20.358Z,24.80
2018-07-06T12:20:48.698Z,24.90
2018-07-06T12:23:16.814Z,24.77
2018-07-06T12:25:44.962Z,25.93
2018-07-06T12:28:13.123Z,24.13
2018-07-06T12:30:41.450Z,24.63
2018-07-06T12:33:09.855Z,24.80
2018-07-06T12:35:38.022Z,23.33
2018-07-06T12:38:06.186Z,22.70
2018-07-06T12:40:34.358Z,21.37
2018-07-06T12:43:02.634Z,24.77
2018-07-06T12:45:31.118Z,25.13
2018-07-06T12:47:59.299Z,24.90
2018-07-06T12:50:27.491Z,23.90
2018-07-06T12:52:55.851Z,23.63
2018-07-06T12:55:24.034Z,24.57
2018-07-06T12:57:52.519Z,22.57
2018-07-06T13:00:21.894Z,20.40
2018-07-06T13:02:50.448Z,21.37
2018-07-06T13:05:18.866Z,22.27
2018-07-06T13:07:47.449Z,21.47
2018-07-06T13:10:15.853Z,20.77
2018-07-06T13:12:44.022Z,21.80
2018-07-06T13:15:12.270Z,21.10
2018-07-06T13:17:40.550Z,21.17
2018-07-06T13:20:08.730Z,18.97
2018-07-06T13:22:37.078Z,19.10
2018-07-06T13:25:05.278Z,20.70
2018-07-06T13:27:33.475Z,19.60
2018-07-06T13:30:01.735Z,18.93
2018-07-06T13:32:29.970Z,18.17
2018-07-06T13:34:58.209Z,18.67
2018-07-06T13:37:26.651Z,18.17
2018-07-06T13:39:55.940Z,17.50
2018-07-06T13:42:24.287Z,16.50
2018-07-06T13:44:52.594Z,16.67
2018-07-06T13:47:21.849Z,16.93
2018-07-06T13:49:50.118Z,15.70
2018-07-06T13:52:18.428Z,17.03
2018-07-06T13:54:46.831Z,17.43
2018-07-06T13:57:15.423Z,18.17
2018-07-06T13:59:43.954Z,17.17
2018-07-06T14:02:12.304Z,16.77
2018-07-06T14:04:40.578Z,16.37
2018-07-06T14:07:09.109Z,16.83
2018-07-06T14:09:37.788Z,16.97
2018-07-06T14:12:06.629Z,17.30
2018-07-06T14:14:35.110Z,16.73
2018-07-06T14:17:03.732Z,17.27
2018-07-06T14:19:32.060Z,18.20
2018-07-06T14:22:00.294Z,17.87
2018-07-06T14:24:28.462Z,16.63
2018-07-06T14:26:56.635Z,17.27
2018-07-06T14:29:25.945Z,16.90
2018-07-06T14:31:54.110Z,16.10
2018-07-06T14:34:22.294Z,15.63
2018-07-06T14:36:50.470Z,16.27
2018-07-06T14:39:18.658Z,15.50
2018-07-06T14:41:46.852Z,15.30
2018-07-06T14:44:15.047Z,15.70
2018-07-06T14:46:43.235Z,14.20
2018-07-06T14:49:11.406Z,15.03
2018-07-06T14:51:39.614Z,15.00
2018-07-06T14:54:07.930Z,14.27
2018-07-06T14:56:36.552Z,14.00
2018-07-06T14:59:05.146Z,14.33
2018-07-06T15:01:34.790Z,14.97
2018-07-06T15:04:03.319Z,14.40
2018-07-06T15:06:31.607Z,15.53
2018-07-06T15:08:59.891Z,15.37
2018-07-06T15:11:27.970Z,15.73
2018-07-06T15:13:56.163Z,14.87
2018-07-06T15:16:24.592Z,14.70
2018-07-06T15:18:52.878Z,16.10
2018-07-06T15:21:21.146Z,15.40
2018-07-06T15:23:49.450Z,13.97
2018-07-06T15:26:17.623Z,14.50
2018-07-06T15:28:45.811Z,15.73
2018-07-06T15:31:14.151Z,14.17
2018-07-06T15:33:42.313Z,13.90
2018-07-06T15:36:10.632Z,15.17
2018-07-06T15:38:38.823Z,13.47
2018-07-06T15:41:07.042Z,14.70
2018-07-06T15:43:35.240Z,15.40
2018-07-06T15:46:03.523Z,16.10
2018-07-06T15:48:31.774Z,15.47
2018-07-06T15:51:00.161Z,15.17
2018-07-06T15:53:28.209Z,16.50
2018-07-06T15:55:56.388Z,15.93
2018-07-06T15:58:24.577Z,16.70
2018-07-06T16:00:52.803Z,16.60
2018-07-06T16:03:21.158Z,15.60
2018-07-06T16:05:49.346Z,15.43
2018-07-06T16:08:17.606Z,14.87
2018-07-06T16:10:45.885Z,15.43
2018-07-06T16:13:14.045Z,16.40
2018-07-06T16:15:42.227Z,16.80
2018-07-06T16:18:10.419Z,14.03
2018-07-06T16:20:38.655Z,16.80
2018-07-06T16:23:06.985Z,15.67
2018-07-06T16:25:35.274Z,15.13
2018-07-06T16:28:03.456Z,14.43
2018-07-06T16:30:31.675Z,14.57
2018-07-06T16:33:00.035Z,16.37
2018-07-06T16:35:28.263Z,13.97
2018-07-06T16:37:56.622Z,13.63
2018-07-06T16:40:24.877Z,14.63
2018-07-06T16:42:53.120Z,14.87
2018-07-06T16:45:21.318Z,12.73
2018-07-06T16:47:49.526Z,13.17
2018-07-06T16:50:18.798Z,12.90
2018-07-06T16:52:46.982Z,14.63
2018-07-06T16:55:15.392Z,14.40
2018-07-06T16:57:43.772Z,13.87
2018-07-06T17:00:12.011Z,14.20
2018-07-06T17:02:40.253Z,12.57
2018-07-06T17:05:08.444Z,12.40
2018-07-06T17:07:36.790Z,12.30
2018-07-06T17:10:05.066Z,12.80
2018-07-06T17:12:33.297Z,12.90
2018-07-06T17:15:01.471Z,12.50
2018-07-06T17:17:29.954Z,12.97
2018-07-06T17:19:58.218Z,13.50
2018-07-06T17:22:26.395Z,13.23
2018-07-06T17:24:54.574Z,12.30
2018-07-06T17:27:22.782Z,13.83
2018-07-06T17:29:50.970Z,13.30
2018-07-06T17:32:19.148Z,12.60
2018-07-06T17:34:47.322Z,11.90
2018-07-06T17:37:15.507Z,12.37
2018-07-06T17:39:43.931Z,13.17
2018-07-06T17:42:12.099Z,13.83
2018-07-06T17:44:40.287Z,14.00
2018-07-06T17:47:08.464Z,14.70
2018-07-06T17:49:36.637Z,13.77
2018-07-06T17:52:04.926Z,13.27
2018-07-06T17:54:33.098Z,11.43
2018-07-06T17:57:01.267Z,12.57
2018-07-06T17:59:29.438Z,13.37
2018-07-06T18:01:57.622Z,12.70
2018-07-06T18:04:27.230Z,13.30
2018-07-06T18:06:55.737Z,12.57
2018-07-06T18:09:24.146Z,12.97
2018-07-06T18:11:52.834Z,13.20
2018-07-06T18:14:21.258Z,13.70
2018-07-06T18:16:50.019Z,12.93
2018-07-06T18:19:18.226Z,13.00
2018-07-06T18:21:46.458Z,12.80
2018-07-06T18:24:14.758Z,11.77
2018-07-06T18:26:42.935Z,11.83
2018-07-06T18:29:11.107Z,12.40
2018-07-06T18:31:39.296Z,12.27
2018-07-06T18:34:07.475Z,13.17
2018-07-06T18:36:35.662Z,13.73
2018-07-06T18:39:05.042Z,12.80
2018-07-06T18:41:33.402Z,13.40
2018-07-06T18:44:01.583Z,12.80
2018-07-06T18:46:29.750Z,12.20
2018-07-06T18:48:57.931Z,12.20
2018-07-06T18:51:26.099Z,14.07
2018-07-06T18:53:54.369Z,13.70
2018-07-06T18:56:22.566Z,12.80
2018-07-06T18:58:50.743Z,13.60
2018-07-06T19:01:18.913Z,13.40
2018-07-06T19:03:47.098Z,13.87
2018-07-06T19:06:15.455Z,14.37
2018-07-06T19:08:43.642Z,13.53
2018-07-06T19:11:11.822Z,12.73
2018-07-06T19:13:40.003Z,12.23
2018-07-06T19:16:08.190Z,12.93
2018-07-06T19:18:36.362Z,12.13
2018-07-06T19:21:04.548Z,12.83
2018-07-06T19:23:32.718Z,12.80
2018-07-06T19:26:00.882Z,12.87
2018-07-06T19:28:29.054Z,13.40
2018-07-06T19:30:57.313Z,13.70
2018-07-06T19:33:25.419Z,12.17
2018-07-06T19:35:53.606Z,12.50
2018-07-06T19:38:21.789Z,11.93
2018-07-06T19:40:50.006Z,13.00
2018-07-06T19:43:18.173Z,13.20
2018-07-06T19:45:46.338Z,13.77
2018-07-06T19:48:14.521Z,13.53
2018-07-06T19:50:42.666Z,12.37
2018-07-06T19:53:10.839Z,13.53
2018-07-06T19:55:39.013Z,13.10
2018-07-06T19:58:07.179Z,13.77
2018-07-06T20:00:35.410Z,14.13
2018-07-06T20:03:03.626Z,14.23
2018-07-06T20:05:31.791Z,13.60
2018-07-06T20:07:59.997Z,13.10
2018-07-06T20:10:28.125Z,13.80
2018-07-06T20:12:56.477Z,12.37
2018-07-06T20:15:24.657Z,12.20
2018-07-06T20:17:52.842Z,13.33
2018-07-06T20:20:21.002Z,13.03
2018-07-06T20:22:49.161Z,14.03
2018-07-06T20:25:17.328Z,14.07
2018-07-06T20:27:45.486Z,14.33
2018-07-06T20:30:13.755Z,13.23
2018-07-06T20:32:41.946Z,13.97
2018-07-06T20:35:10.161Z,13.00
2018-07-06T20:37:38.282Z,13.27
2018-07-06T20:40:06.503Z,13.30
2018-07-06T20:42:34.662Z,13.30
2018-07-06T20:45:02.844Z,12.57
2018-07-06T20:47:31.022Z,13.17
2018-07-06T20:49:59.251Z,13.27
2018-07-06T20:52:27.418Z,13.03
2018-07-06T20:54:55.593Z,12.60
2018-07-06T20:57:23.747Z,14.07
2018-07-06T20:59:51.902Z,13.67
2018-07-06T21:02:20.070Z,13.33
2018-07-06T21:04:48.235Z,14.13
2018-07-06T21:07:16.759Z,13.93
2018-07-06T21:09:44.931Z,13.57
2018-07-06T21:12:13.102Z,14.33
2018-07-06T21:14:41.293Z,14.33
2018-07-06T21:17:09.458Z,14.70
2018-07-06T21:19:37.627Z,14.27
2018-07-06T21:22:06.336Z,13.03
2018-07-06T21:24:34.512Z,15.50
2018-07-06T21:27:02.703Z,14.37
2018-07-06T21:29:30.873Z,13.90
2018-07-06T21:31:59.034Z,14.07
2018-07-06T21:34:27.206Z,14.00
2018-07-06T21:36:55.465Z,15.40
2018-07-06T21:39:23.670Z,13.63
2018-07-06T21:41:51.918Z,13.27
2018-07-06T21:44:20.078Z,12.53
2018-07-06T21:46:48.273Z,14.30
2018-07-06T21:49:16.442Z,14.77
2018-07-06T21:51:44.602Z,14.07
2018-07-06T21:54:12.763Z,13.30
2018-07-06T21:56:40.926Z,13.50
2018-07-06T21:59:09.083Z,13.60
2018-07-06T22:01:37.235Z,14.30
2018-07-06T22:04:05.427Z,14.40
2018-07-06T22:06:33.643Z,14.40
2018-07-06T22:09:01.796Z,13.80
2018-07-06T22:11:29.966Z,15.10
2018-07-06T22:13:58.125Z,12.90
2018-07-06T22:16:26.282Z,13.13
2018-07-06T22:18:54.450Z,14.23
2018-07-06T22:21:22.606Z,14.30
2018-07-06T22:23:50.776Z,14.70
2018-07-06T22:26:18.935Z,13.97
2018-07-06T22:28:47.102Z,13.97
2018-07-06T22:31:15.262Z,14.50
2018-07-06T22:33:43.421Z,14.13
2018-07-06T22:36:11.574Z,13.50
2018-07-06T22:38:39.745Z,14.80
2018-07-06T22:41:07.905Z,13.40
2018-07-06T22:43:36.069Z,13.57
2018-07-06T22:46:04.254Z,13.77
2018-07-06T22:48:32.441Z,14.33
2018-07-06T22:51:00.644Z,14.13
2018-07-06T22:53:28.806Z,13.83
2018-07-06T22:55:57.199Z,15.30
2018-07-06T22:58:25.414Z,13.73
2018-07-06T23:00:53.557Z,15.10
2018-07-06T23:03:21.722Z,13.90
2018-07-06T23:05:49.879Z,14.10
2018-07-06T23:08:18.054Z,16.60
2018-07-06T23:10:46.215Z,16.23
2018-07-06T23:13:14.379Z,16.60
2018-07-06T23:15:42.537Z,16.87
2018-07-06T23:18:10.690Z,15.70
2018-07-06T23:20:38.847Z,16.53
2018-07-06T23:23:09.770Z,16.20
2018-07-06T23:25:39.999Z,16.33
2018-07-06T23:28:08.202Z,17.40
2018-07-06T23:30:36.401Z,17.80
2018-07-06T23:33:05.362Z,17.37
2018-07-06T23:35:33.710Z,17.20
2018-07-06T23:38:01.891Z,17.03
2018-07-06T23:40:30.270Z,18.73
2018-07-06T23:42:58.450Z,19.47
2018-07-06T23:45:26.614Z,18.10
2018-07-06T23:47:54.787Z,19.17
2018-07-06T23:50:23.270Z,18.33
2018-07-06T23:52:51.473Z,18.67
2018-07-06T23:55:19.717Z,18.37
2018-07-06T23:57:48.102Z,16.80
